sensor_id;sensor_type;location;lat;lon;timestamp;P1;durP1;ratioP1;P2;durP2;ratioP2
16520;SDS011;8373;48.110;11.522;2022-10-17T04:02:12;10.60;;;5.47;;
16520;SDS011;8373;48.110;11.522;2022-10-17T04:04:39;10.50;;;6.07;;
16520;SDS011;8373;48.110;11.522;2022-10-17T04:07:06;13.20;;;6.10;;
16520;SDS011;8373;48.110;11.522;2022-10-17T04:09:33;14.93;;;6.43;;
16520;SDS011;8373;48.110;11.522;2022-10-17T04:12:00;10.67;;;6.10;;
16520;SDS011;8373;48.110;11.522;2022-10-17T04:14:27;20.87;;;6.43;;
16520;SDS011;8373;48.110;11.522;2022-10-17T04:16:54;22.67;;;6.10;;
16520;SDS011;8373;48.110;11.522;2022-10-17T04:19:22;14.13;;;6.00;;
16520;SDS011;8373;48.110;11.522;2022-10-17T04:21:49;11.40;;;6.20;;
16520;SDS011;8373;48.110;11.522;2022-10-17T04:24:16;11.97;;;5.90;;
16520;SDS011;8373;48.110;11.522;2022-10-17T04:26:44;12.40;;;5.80;;
16520;SDS011;8373;48.110;11.522;2022-10-17T04:29:14;13.10;;;5.90;;
16520;SDS011;8373;48.110;11.522;2022-10-17T04:31:41;10.63;;;6.07;;
16520;SDS011;8373;48.110;11.522;2022-10-17T04:34:08;14.00;;;6.27;;
16520;SDS011;8373;48.110;11.522;2022-10-17T04:36:36;15.27;;;6.87;;
16520;SDS011;8373;48.110;11.522;2022-10-17T04:39:03;16.27;;;7.30;;
16520;SDS011;8373;48.110;11.522;2022-10-17T04:41:30;11.27;;;6.57;;
16520;SDS011;8373;48.110;11.522;2022-10-17T04:43:57;13.57;;;7.27;;
16520;SDS011;8373;48.110;11.522;2022-10-17T04:46:24;15.40;;;6.57;;
16520;SDS011;8373;48.110;11.522;2022-10-17T04:48:52;12.80;;;6.20;;
16520;SDS011;8373;48.110;11.522;2022-10-17T04:51:19;24.47;;;6.37;;
16520;SDS011;8373;48.110;11.522;2022-10-17T04:53:53;12.00;;;5.90;;
16520;SDS011;8373;48.110;11.522;2022-10-17T04:56:23;11.97;;;6.40;;
16520;SDS011;8373;48.110;11.522;2022-10-17T04:58:50;11.17;;;6.17;;
16520;SDS011;8373;48.110;11.522;2022-10-17T05:01:18;15.10;;;6.23;;
16520;SDS011;8373;48.110;11.522;2022-10-17T05:03:46;19.47;;;7.63;;
16520;SDS011;8373;48.110;11.522;2022-10-17T05:06:14;10.67;;;5.70;;
16520;SDS011;8373;48.110;11.522;2022-10-17T05:08:42;13.10;;;7.00;;
16520;SDS011;8373;48.110;11.522;2022-10-17T05:11:18;20.43;;;7.87;;
16520;SDS011;8373;48.110;11.522;2022-10-17T05:13:48;15.80;;;7.00;;
16520;SDS011;8373;48.110;11.522;2022-10-17T05:16:16;15.43;;;6.83;;
16520;SDS011;8373;48.110;11.522;2022-10-17T05:18:43;15.70;;;6.53;;
16520;SDS011;8373;48.110;11.522;2022-10-17T05:21:12;22.90;;;8.17;;
16520;SDS011;8373;48.110;11.522;2022-10-17T05:23:39;19.13;;;7.67;;
16520;SDS011;8373;48.110;11.522;2022-10-17T05:26:06;16.70;;;7.67;;
16520;SDS011;8373;48.110;11.522;2022-10-17T05:28:35;16.17;;;7.53;;
16520;SDS011;8373;48.110;11.522;2022-10-17T05:31:02;12.77;;;6.70;;
16520;SDS011;8373;48.110;11.522;2022-10-17T05:33:29;27.40;;;7.60;;
16520;SDS011;8373;48.110;11.522;2022-10-17T05:35:56;18.60;;;7.13;;
16520;SDS011;8373;48.110;11.522;2022-10-17T05:38:24;15.67;;;7.40;;
16520;SDS011;8373;48.110;11.522;2022-10-17T05:40:55;19.83;;;8.83;;
16520;SDS011;8373;48.110;11.522;2022-10-17T05:43:22;18.70;;;7.70;;
16520;SDS011;8373;48.110;11.522;2022-10-17T05:45:51;20.63;;;8.27;;
16520;SDS011;8373;48.110;11.522;2022-10-17T05:48:18;20.97;;;8.97;;
16520;SDS011;8373;48.110;11.522;2022-10-17T05:50:45;23.97;;;10.07;;
16520;SDS011;8373;48.110;11.522;2022-10-17T05:53:12;26.67;;;9.37;;
16520;SDS011;8373;48.110;11.522;2022-10-17T05:55:39;33.60;;;9.47;;
16520;SDS011;8373;48.110;11.522;2022-10-17T05:58:06;25.90;;;9.17;;
16520;SDS011;8373;48.110;11.522;2022-10-17T06:00:33;27.70;;;8.87;;
16520;SDS011;8373;48.110;11.522;2022-10-17T06:03:02;33.23;;;9.63;;
16520;SDS011;8373;48.110;11.522;2022-10-17T06:05:29;28.67;;;9.27;;
16520;SDS011;8373;48.110;11.522;2022-10-17T06:07:56;17.70;;;8.00;;
16520;SDS011;8373;48.110;11.522;2022-10-17T06:10:23;31.53;;;8.77;;
16520;SDS011;8373;48.110;11.522;2022-10-17T06:12:50;43.77;;;7.80;;
16520;SDS011;8373;48.110;11.522;2022-10-17T06:15:17;21.73;;;9.30;;
16520;SDS011;8373;48.110;11.522;2022-10-17T06:17:44;24.63;;;9.10;;
16520;SDS011;8373;48.110;11.522;2022-10-17T06:20:13;20.87;;;8.80;;
16520;SDS011;8373;48.110;11.522;2022-10-17T06:22:40;16.80;;;7.40;;
16520;SDS011;8373;48.110;11.522;2022-10-17T06:25:07;17.60;;;8.37;;
16520;SDS011;8373;48.110;11.522;2022-10-17T06:27:35;17.97;;;8.03;;
16520;SDS011;8373;48.110;11.522;2022-10-17T06:30:02;22.30;;;8.60;;
16520;SDS011;8373;48.110;11.522;2022-10-17T06:32:29;18.60;;;8.73;;
16520;SDS011;8373;48.110;11.522;2022-10-17T06:34:56;13.30;;;6.93;;
16520;SDS011;8373;48.110;11.522;2022-10-17T06:37:25;25.57;;;8.70;;
16520;SDS011;8373;48.110;11.522;2022-10-17T06:39:55;31.13;;;8.57;;
16520;SDS011;8373;48.110;11.522;2022-10-17T06:42:22;22.03;;;7.53;;
16520;SDS011;8373;48.110;11.522;2022-10-17T06:44:49;12.70;;;7.47;;
16520;SDS011;8373;48.110;11.522;2022-10-17T06:47:16;24.63;;;7.63;;
16520;SDS011;8373;48.110;11.522;2022-10-17T06:49:43;34.90;;;8.80;;
16520;SDS011;8373;48.110;11.522;2022-10-17T06:52:10;25.57;;;8.70;;
16520;SDS011;8373;48.110;11.522;2022-10-17T06:54:39;18.23;;;8.20;;
16520;SDS011;8373;48.110;11.522;2022-10-17T06:57:06;21.20;;;7.80;;
16520;SDS011;8373;48.110;11.522;2022-10-17T06:59:33;22.00;;;7.87;;
16520;SDS011;8373;48.110;11.522;2022-10-17T07:02:00;17.37;;;8.10;;
16520;SDS011;8373;48.110;11.522;2022-10-17T07:04:28;15.23;;;7.30;;
16520;SDS011;8373;48.110;11.522;2022-10-17T07:06:55;17.90;;;7.07;;
16520;SDS011;8373;48.110;11.522;2022-10-17T07:09:22;22.97;;;8.10;;
16520;SDS011;8373;48.110;11.522;2022-10-17T07:11:52;22.70;;;8.40;;
16520;SDS011;8373;48.110;11.522;2022-10-17T07:14:19;23.33;;;7.57;;
16520;SDS011;8373;48.110;11.522;2022-10-17T07:16:46;30.80;;;8.33;;
16520;SDS011;8373;48.110;11.522;2022-10-17T07:19:14;31.77;;;8.10;;
16520;SDS011;8373;48.110;11.522;2022-10-17T07:21:41;24.57;;;7.80;;
16520;SDS011;8373;48.110;11.522;2022-10-17T07:24:08;28.77;;;8.23;;
16520;SDS011;8373;48.110;11.522;2022-10-17T07:26:35;22.93;;;7.93;;
16520;SDS011;8373;48.110;11.522;2022-10-17T07:29:03;23.43;;;7.73;;
16520;SDS011;8373;48.110;11.522;2022-10-17T07:31:31;21.23;;;8.00;;
16520;SDS011;8373;48.110;11.522;2022-10-17T07:33:59;17.50;;;8.70;;
16520;SDS011;8373;48.110;11.522;2022-10-17T07:36:26;17.47;;;6.70;;
16520;SDS011;8373;48.110;11.522;2022-10-17T07:38:53;18.60;;;7.87;;
16520;SDS011;8373;48.110;11.522;2022-10-17T07:41:21;18.20;;;8.70;;
16520;SDS011;8373;48.110;11.522;2022-10-17T07:43:47;18.67;;;8.30;;
16520;SDS011;8373;48.110;11.522;2022-10-17T07:46:16;22.73;;;8.90;;
16520;SDS011;8373;48.110;11.522;2022-10-17T07:48:43;26.07;;;10.80;;
16520;SDS011;8373;48.110;11.522;2022-10-17T07:51:10;19.93;;;7.90;;
16520;SDS011;8373;48.110;11.522;2022-10-17T07:53:37;19.10;;;8.43;;
16520;SDS011;8373;48.110;11.522;2022-10-17T07:56:06;18.00;;;8.70;;
16520;SDS011;8373;48.110;11.522;2022-10-17T07:58:34;15.93;;;7.80;;
16520;SDS011;8373;48.110;11.522;2022-10-17T08:01:03;18.93;;;9.00;;
16520;SDS011;8373;48.110;11.522;2022-10-17T08:03:32;14.00;;;7.23;;
16520;SDS011;8373;48.110;11.522;2022-10-17T08:06:00;20.03;;;9.03;;
16520;SDS011;8373;48.110;11.522;2022-10-17T08:08:28;14.23;;;7.27;;
16520;SDS011;8373;48.110;11.522;2022-10-17T08:10:57;17.30;;;8.87;;
16520;SDS011;8373;48.110;11.522;2022-10-17T08:13:27;17.43;;;6.83;;
16520;SDS011;8373;48.110;11.522;2022-10-17T08:15:57;13.60;;;6.83;;
16520;SDS011;8373;48.110;11.522;2022-10-17T08:18:25;15.80;;;6.83;;
16520;SDS011;8373;48.110;11.522;2022-10-17T08:20:53;15.80;;;9.00;;
16520;SDS011;8373;48.110;11.522;2022-10-17T08:23:20;15.20;;;6.23;;
16520;SDS011;8373;48.110;11.522;2022-10-17T08:25:47;12.40;;;6.87;;
16520;SDS011;8373;48.110;11.522;2022-10-17T08:28:14;14.67;;;6.20;;
16520;SDS011;8373;48.110;11.522;2022-10-17T08:30:41;12.63;;;6.50;;
16520;SDS011;8373;48.110;11.522;2022-10-17T08:33:08;17.30;;;5.80;;
16520;SDS011;8373;48.110;11.522;2022-10-17T08:35:35;9.63;;;5.80;;
16520;SDS011;8373;48.110;11.522;2022-10-17T08:38:03;11.13;;;5.97;;
16520;SDS011;8373;48.110;11.522;2022-10-17T08:40:31;9.68;;;5.00;;
16520;SDS011;8373;48.110;11.522;2022-10-17T08:43:11;12.73;;;5.38;;
16520;SDS011;8373;48.110;11.522;2022-10-17T08:45:51;7.75;;;4.60;;
16520;SDS011;8373;48.110;11.522;2022-10-17T08:48:22;9.25;;;5.00;;
16520;SDS011;8373;48.110;11.522;2022-10-17T08:50:51;9.23;;;5.15;;
16520;SDS011;8373;48.110;11.522;2022-10-17T08:53:23;10.32;;;4.53;;
16520;SDS011;8373;48.110;11.522;2022-10-17T08:55:54;13.60;;;4.63;;
16520;SDS011;8373;48.110;11.522;2022-10-17T08:58:23;17.35;;;5.32;;
16520;SDS011;8373;48.110;11.522;2022-10-17T09:00:56;12.30;;;5.60;;
16520;SDS011;8373;48.110;11.522;2022-10-17T09:03:34;12.35;;;5.20;;
16520;SDS011;8373;48.110;11.522;2022-10-17T09:06:14;10.73;;;4.63;;
16520;SDS011;8373;48.110;11.522;2022-10-17T09:08:52;9.30;;;4.13;;
16520;SDS011;8373;48.110;11.522;2022-10-17T09:11:39;6.15;;;2.38;;
16520;SDS011;8373;48.110;11.522;2022-10-17T09:14:25;3.58;;;1.60;;
16520;SDS011;8373;48.110;11.522;2022-10-17T09:17:09;3.10;;;1.48;;
16520;SDS011;8373;48.110;11.522;2022-10-17T09:19:44;1.75;;;1.10;;
16520;SDS011;8373;48.110;11.522;2022-10-17T09:22:26;1.40;;;1.30;;
16520;SDS011;8373;48.110;11.522;2022-10-17T09:25:01;1.10;;;1.10;;
16520;SDS011;8373;48.110;11.522;2022-10-17T09:27:32;1.10;;;1.10;;
16520;SDS011;8373;48.110;11.522;2022-10-17T09:30:20;1.25;;;1.25;;
16520;SDS011;8373;48.110;11.522;2022-10-17T09:32:53;0.90;;;0.90;;
16520;SDS011;8373;48.110;11.522;2022-10-17T09:35:20;1.33;;;1.33;;
16520;SDS011;8373;48.110;11.522;2022-10-17T09:37:49;0.80;;;0.80;;
16520;SDS011;8373;48.110;11.522;2022-10-17T09:40:20;0.80;;;0.80;;
16520;SDS011;8373;48.110;11.522;2022-10-17T09:42:50;0.60;;;0.60;;
16520;SDS011;8373;48.110;11.522;2022-10-17T09:45:19;0.80;;;0.80;;
16520;SDS011;8373;48.110;11.522;2022-10-17T09:47:53;0.63;;;0.63;;
16520;SDS011;8373;48.110;11.522;2022-10-17T09:50:25;0.90;;;0.90;;
16520;SDS011;8373;48.110;11.522;2022-10-17T09:52:53;0.80;;;0.80;;
16520;SDS011;8373;48.110;11.522;2022-10-17T09:55:26;0.93;;;0.93;;
16520;SDS011;8373;48.110;11.522;2022-10-17T09:57:59;0.90;;;0.90;;
16520;SDS011;8373;48.110;11.522;2022-10-17T10:00:28;0.70;;;0.70;;
16520;SDS011;8373;48.110;11.522;2022-10-17T10:03:09;0.50;;;0.50;;
16520;SDS011;8373;48.110;11.522;2022-10-17T10:05:40;0.65;;;0.65;;
16520;SDS011;8373;48.110;11.522;2022-10-17T10:08:17;0.80;;;0.80;;
16520;SDS011;8373;48.110;11.522;2022-10-17T10:10:46;0.50;;;0.50;;
16520;SDS011;8373;48.110;11.522;2022-10-17T10:13:24;0.70;;;0.70;;
16520;SDS011;8373;48.110;11.522;2022-10-17T10:15:52;0.52;;;0.52;;
16520;SDS011;8373;48.110;11.522;2022-10-17T10:18:37;0.93;;;0.93;;
16520;SDS011;8373;48.110;11.522;2022-10-17T10:21:05;0.80;;;0.80;;
16520;SDS011;8373;48.110;11.522;2022-10-17T10:23:34;0.60;;;0.60;;
16520;SDS011;8373;48.110;11.522;2022-10-17T10:26:11;0.60;;;0.60;;
16520;SDS011;8373;48.110;11.522;2022-10-17T10:28:50;0.60;;;0.60;;
16520;SDS011;8373;48.110;11.522;2022-10-17T10:31:24;0.55;;;0.55;;
16520;SDS011;8373;48.110;11.522;2022-10-17T10:33:57;0.80;;;0.80;;
16520;SDS011;8373;48.110;11.522;2022-10-17T10:36:44;0.57;;;0.57;;
16520;SDS011;8373;48.110;11.522;2022-10-17T10:39:20;0.60;;;0.60;;
16520;SDS011;8373;48.110;11.522;2022-10-17T10:42:05;0.60;;;0.60;;
16520;SDS011;8373;48.110;11.522;2022-10-17T10:44:33;0.60;;;0.60;;
16520;SDS011;8373;48.110;11.522;2022-10-17T10:47:05;0.75;;;0.75;;
16520;SDS011;8373;48.110;11.522;2022-10-17T10:49:40;0.70;;;0.70;;
16520;SDS011;8373;48.110;11.522;2022-10-17T10:52:08;0.90;;;0.90;;
16520;SDS011;8373;48.110;11.522;2022-10-17T10:54:45;0.85;;;0.85;;
16520;SDS011;8373;48.110;11.522;2022-10-17T10:57:22;0.75;;;0.75;;
16520;SDS011;8373;48.110;11.522;2022-10-17T10:59:56;0.77;;;0.77;;
16520;SDS011;8373;48.110;11.522;2022-10-17T11:02:29;0.90;;;0.90;;
16520;SDS011;8373;48.110;11.522;2022-10-17T11:05:02;0.75;;;0.75;;
16520;SDS011;8373;48.110;11.522;2022-10-17T11:10:21;0.90;;;0.90;;
16520;SDS011;8373;48.110;11.522;2022-10-17T11:12:55;0.70;;;0.70;;
16520;SDS011;8373;48.110;11.522;2022-10-17T11:15:34;0.70;;;0.70;;
16520;SDS011;8373;48.110;11.522;2022-10-17T11:18:06;0.70;;;0.70;;
16520;SDS011;8373;48.110;11.522;2022-10-17T11:20:42;0.45;;;0.45;;
16520;SDS011;8373;48.110;11.522;2022-10-17T11:23:17;0.60;;;0.60;;
16520;SDS011;8373;48.110;11.522;2022-10-17T11:25:50;0.60;;;0.60;;
16520;SDS011;8373;48.110;11.522;2022-10-17T11:28:20;0.80;;;0.80;;
16520;SDS011;8373;48.110;11.522;2022-10-17T11:30:50;0.52;;;0.52;;
16520;SDS011;8373;48.110;11.522;2022-10-17T11:33:23;0.40;;;0.40;;
16520;SDS011;8373;48.110;11.522;2022-10-17T11:35:54;0.50;;;0.50;;
16520;SDS011;8373;48.110;11.522;2022-10-17T11:38:28;1.00;;;1.00;;
16520;SDS011;8373;48.110;11.522;2022-10-17T11:41:03;0.90;;;0.90;;
16520;SDS011;8373;48.110;11.522;2022-10-17T11:43:35;0.70;;;0.70;;
16520;SDS011;8373;48.110;11.522;2022-10-17T11:46:10;0.60;;;0.60;;
16520;SDS011;8373;48.110;11.522;2022-10-17T11:48:41;0.50;;;0.50;;
16520;SDS011;8373;48.110;11.522;2022-10-17T11:51:15;0.80;;;0.80;;
16520;SDS011;8373;48.110;11.522;2022-10-17T11:53:45;0.60;;;0.60;;
16520;SDS011;8373;48.110;11.522;2022-10-17T11:56:16;0.70;;;0.70;;
16520;SDS011;8373;48.110;11.522;2022-10-17T11:58:53;0.70;;;0.70;;
16520;SDS011;8373;48.110;11.522;2022-10-17T12:01:25;0.73;;;0.73;;
16520;SDS011;8373;48.110;11.522;2022-10-17T12:04:11;0.68;;;0.68;;
16520;SDS011;8373;48.110;11.522;2022-10-17T12:06:58;0.73;;;0.73;;
16520;SDS011;8373;48.110;11.522;2022-10-17T12:09:41;0.60;;;0.60;;
16520;SDS011;8373;48.110;11.522;2022-10-17T12:12:22;0.40;;;0.40;;
16520;SDS011;8373;48.110;11.522;2022-10-17T12:14:52;0.50;;;0.50;;
16520;SDS011;8373;48.110;11.522;2022-10-17T12:17:29;0.60;;;0.60;;
16520;SDS011;8373;48.110;11.522;2022-10-17T12:23:04;0.90;;;0.90;;
16520;SDS011;8373;48.110;11.522;2022-10-17T12:25:47;0.75;;;0.75;;
16520;SDS011;8373;48.110;11.522;2022-10-17T12:28:18;1.13;;;1.13;;
16520;SDS011;8373;48.110;11.522;2022-10-17T12:30:57;1.05;;;1.05;;
16520;SDS011;8373;48.110;11.522;2022-10-17T12:33:30;1.15;;;1.15;;
16520;SDS011;8373;48.110;11.522;2022-10-17T12:42:27;1.40;;;1.40;;
16520;SDS011;8373;48.110;11.522;2022-10-17T12:48:12;1.60;;;1.55;;
16520;SDS011;8373;48.110;11.522;2022-10-17T12:51:00;1.80;;;1.70;;
16520;SDS011;8373;48.110;11.522;2022-10-17T12:53:30;1.33;;;1.23;;
16520;SDS011;8373;48.110;11.522;2022-10-17T12:56:02;1.50;;;1.40;;
16520;SDS011;8373;48.110;11.522;2022-10-17T12:58:29;1.63;;;1.52;;
16520;SDS011;8373;48.110;11.522;2022-10-17T13:00:56;1.77;;;1.67;;
16520;SDS011;8373;48.110;11.522;2022-10-17T13:03:26;2.40;;;2.20;;
16520;SDS011;8373;48.110;11.522;2022-10-17T13:05:57;2.07;;;1.80;;
16520;SDS011;8373;48.110;11.522;2022-10-17T13:08:26;1.87;;;1.27;;
16520;SDS011;8373;48.110;11.522;2022-10-17T13:10:56;2.47;;;2.00;;
16520;SDS011;8373;48.110;11.522;2022-10-17T13:13:25;2.63;;;2.10;;
16520;SDS011;8373;48.110;11.522;2022-10-17T13:16:01;2.80;;;2.07;;
16520;SDS011;8373;48.110;11.522;2022-10-17T13:18:30;2.53;;;2.10;;
16520;SDS011;8373;48.110;11.522;2022-10-17T13:20:58;2.53;;;2.00;;
16520;SDS011;8373;48.110;11.522;2022-10-17T13:23:28;2.43;;;1.70;;
16520;SDS011;8373;48.110;11.522;2022-10-17T13:26:01;3.10;;;2.13;;
16520;SDS011;8373;48.110;11.522;2022-10-17T13:28:33;3.23;;;2.20;;
16520;SDS011;8373;48.110;11.522;2022-10-17T13:31:00;2.83;;;1.70;;
16520;SDS011;8373;48.110;11.522;2022-10-17T13:33:30;2.80;;;1.50;;
16520;SDS011;8373;48.110;11.522;2022-10-17T13:35:59;3.90;;;2.33;;
16520;SDS011;8373;48.110;11.522;2022-10-17T13:38:29;4.40;;;2.20;;
16520;SDS011;8373;48.110;11.522;2022-10-17T13:40:58;4.13;;;2.50;;
16520;SDS011;8373;48.110;11.522;2022-10-17T13:43:26;3.50;;;1.90;;
16520;SDS011;8373;48.110;11.522;2022-10-17T13:45:54;4.33;;;2.73;;
16520;SDS011;8373;48.110;11.522;2022-10-17T13:48:25;4.30;;;2.60;;
16520;SDS011;8373;48.110;11.522;2022-10-17T13:50:57;4.20;;;2.17;;
16520;SDS011;8373;48.110;11.522;2022-10-17T13:53:29;5.83;;;2.50;;
16520;SDS011;8373;48.110;11.522;2022-10-17T13:55:58;4.10;;;2.17;;
16520;SDS011;8373;48.110;11.522;2022-10-17T13:58:29;8.40;;;2.73;;
16520;SDS011;8373;48.110;11.522;2022-10-17T14:00:59;5.30;;;2.73;;
16520;SDS011;8373;48.110;11.522;2022-10-17T14:03:26;5.70;;;3.20;;
16520;SDS011;8373;48.110;11.522;2022-10-17T14:06:10;4.33;;;2.27;;
16520;SDS011;8373;48.110;11.522;2022-10-17T14:08:45;5.30;;;2.67;;
16520;SDS011;8373;48.110;11.522;2022-10-17T14:11:21;4.80;;;2.43;;
16520;SDS011;8373;48.110;11.522;2022-10-17T14:13:50;5.80;;;2.43;;
16520;SDS011;8373;48.110;11.522;2022-10-17T14:16:20;5.67;;;2.90;;
16520;SDS011;8373;48.110;11.522;2022-10-17T14:18:48;5.80;;;2.33;;
16520;SDS011;8373;48.110;11.522;2022-10-17T14:21:19;32.07;;;11.60;;
16520;SDS011;8373;48.110;11.522;2022-10-17T14:23:47;20.33;;;7.43;;
16520;SDS011;8373;48.110;11.522;2022-10-17T14:26:15;20.67;;;7.30;;
16520;SDS011;8373;48.110;11.522;2022-10-17T14:28:46;19.30;;;7.07;;
16520;SDS011;8373;48.110;11.522;2022-10-17T14:31:22;44.33;;;11.90;;
16520;SDS011;8373;48.110;11.522;2022-10-17T14:33:53;25.57;;;6.90;;
16520;SDS011;8373;48.110;11.522;2022-10-17T14:36:29;38.53;;;7.40;;
16520;SDS011;8373;48.110;11.522;2022-10-17T14:38:59;30.03;;;6.17;;
16520;SDS011;8373;48.110;11.522;2022-10-17T14:41:27;19.57;;;5.90;;
16520;SDS011;8373;48.110;11.522;2022-10-17T14:43:58;23.17;;;5.30;;
16520;SDS011;8373;48.110;11.522;2022-10-17T14:46:26;21.40;;;6.13;;
16520;SDS011;8373;48.110;11.522;2022-10-17T14:48:54;15.07;;;5.70;;
16520;SDS011;8373;48.110;11.522;2022-10-17T14:51:23;15.43;;;5.30;;
16520;SDS011;8373;48.110;11.522;2022-10-17T14:54:19;20.57;;;5.77;;
16520;SDS011;8373;48.110;11.522;2022-10-17T14:56:50;11.13;;;4.20;;
16520;SDS011;8373;48.110;11.522;2022-10-17T14:59:18;19.83;;;5.70;;
16520;SDS011;8373;48.110;11.522;2022-10-17T15:01:49;22.73;;;7.10;;
16520;SDS011;8373;48.110;11.522;2022-10-17T15:04:16;19.53;;;5.80;;
16520;SDS011;8373;48.110;11.522;2022-10-17T15:06:43;17.80;;;5.67;;
16520;SDS011;8373;48.110;11.522;2022-10-17T15:09:12;20.63;;;6.77;;
16520;SDS011;8373;48.110;11.522;2022-10-17T15:11:38;22.73;;;6.50;;
16520;SDS011;8373;48.110;11.522;2022-10-17T15:14:05;16.73;;;6.07;;
16520;SDS011;8373;48.110;11.522;2022-10-17T15:16:33;17.30;;;5.40;;
16520;SDS011;8373;48.110;11.522;2022-10-17T15:19:01;16.83;;;5.70;;
16520;SDS011;8373;48.110;11.522;2022-10-17T15:21:28;17.00;;;5.17;;
16520;SDS011;8373;48.110;11.522;2022-10-17T15:23:55;16.43;;;5.70;;
16520;SDS011;8373;48.110;11.522;2022-10-17T15:26:25;12.60;;;5.47;;
16520;SDS011;8373;48.110;11.522;2022-10-17T15:28:54;19.53;;;7.10;;
16520;SDS011;8373;48.110;11.522;2022-10-17T15:31:22;23.13;;;6.30;;
16520;SDS011;8373;48.110;11.522;2022-10-17T15:33:51;27.47;;;7.87;;
16520;SDS011;8373;48.110;11.522;2022-10-17T15:36:19;19.93;;;7.13;;
16520;SDS011;8373;48.110;11.522;2022-10-17T15:38:47;29.33;;;7.87;;
16520;SDS011;8373;48.110;11.522;2022-10-17T15:41:16;10.60;;;5.40;;
16520;SDS011;8373;48.110;11.522;2022-10-17T15:43:44;9.03;;;5.43;;
16520;SDS011;8373;48.110;11.522;2022-10-17T15:46:12;12.70;;;5.27;;
16520;SDS011;8373;48.110;11.522;2022-10-17T15:48:43;11.53;;;6.70;;
16520;SDS011;8373;48.110;11.522;2022-10-17T15:51:10;9.47;;;5.80;;
16520;SDS011;8373;48.110;11.522;2022-10-17T15:53:37;30.10;;;6.23;;
16520;SDS011;8373;48.110;11.522;2022-10-17T15:56:05;11.40;;;6.73;;
16520;SDS011;8373;48.110;11.522;2022-10-17T15:58:35;9.00;;;5.23;;
16520;SDS011;8373;48.110;11.522;2022-10-17T16:01:05;8.53;;;5.10;;
16520;SDS011;8373;48.110;11.522;2022-10-17T16:03:32;15.80;;;5.70;;
16520;SDS011;8373;48.110;11.522;2022-10-17T16:05:59;13.67;;;5.40;;
16520;SDS011;8373;48.110;11.522;2022-10-17T16:08:26;10.10;;;5.20;;
16520;SDS011;8373;48.110;11.522;2022-10-17T16:10:54;10.77;;;5.60;;
16520;SDS011;8373;48.110;11.522;2022-10-17T16:13:22;10.80;;;5.23;;
16520;SDS011;8373;48.110;11.522;2022-10-17T16:15:49;12.43;;;6.70;;
16520;SDS011;8373;48.110;11.522;2022-10-17T16:18:18;12.77;;;6.30;;
16520;SDS011;8373;48.110;11.522;2022-10-17T16:20:45;14.77;;;6.30;;
16520;SDS011;8373;48.110;11.522;2022-10-17T16:23:12;13.60;;;7.33;;
16520;SDS011;8373;48.110;11.522;2022-10-17T16:25:40;13.03;;;7.17;;
16520;SDS011;8373;48.110;11.522;2022-10-17T16:28:07;16.90;;;6.63;;
16520;SDS011;8373;48.110;11.522;2022-10-17T16:30:37;12.93;;;6.93;;
16520;SDS011;8373;48.110;11.522;2022-10-17T16:33:09;11.27;;;6.03;;
16520;SDS011;8373;48.110;11.522;2022-10-17T16:35:38;17.23;;;7.70;;
16520;SDS011;8373;48.110;11.522;2022-10-17T16:38:05;18.13;;;7.60;;
16520;SDS011;8373;48.110;11.522;2022-10-17T16:40:33;26.30;;;7.83;;
16520;SDS011;8373;48.110;11.522;2022-10-17T16:43:00;24.77;;;7.77;;
16520;SDS011;8373;48.110;11.522;2022-10-17T16:45:27;22.30;;;8.53;;
16520;SDS011;8373;48.110;11.522;2022-10-17T16:47:55;19.70;;;8.60;;
16520;SDS011;8373;48.110;11.522;2022-10-17T16:50:22;23.50;;;11.10;;
16520;SDS011;8373;48.110;11.522;2022-10-17T16:52:50;22.80;;;8.90;;
16520;SDS011;8373;48.110;11.522;2022-10-17T16:55:17;17.30;;;8.50;;
16520;SDS011;8373;48.110;11.522;2022-10-17T16:57:45;19.07;;;10.10;;
16520;SDS011;8373;48.110;11.522;2022-10-17T17:00:13;27.30;;;8.97;;
16520;SDS011;8373;48.110;11.522;2022-10-17T17:02:41;23.87;;;10.27;;
16520;SDS011;8373;48.110;11.522;2022-10-17T17:05:08;23.30;;;9.40;;
16520;SDS011;8373;48.110;11.522;2022-10-17T17:07:35;29.83;;;11.30;;
16520;SDS011;8373;48.110;11.522;2022-10-17T17:10:04;28.10;;;9.73;;
16520;SDS011;8373;48.110;11.522;2022-10-17T17:12:32;20.40;;;9.67;;
16520;SDS011;8373;48.110;11.522;2022-10-17T17:14:59;29.07;;;10.07;;
16520;SDS011;8373;48.110;11.522;2022-10-17T17:17:26;27.93;;;9.87;;
16520;SDS011;8373;48.110;11.522;2022-10-17T17:19:53;25.20;;;11.30;;
16520;SDS011;8373;48.110;11.522;2022-10-17T17:22:20;21.77;;;9.47;;
16520;SDS011;8373;48.110;11.522;2022-10-17T17:24:47;29.40;;;10.00;;
16520;SDS011;8373;48.110;11.522;2022-10-17T17:27:16;18.80;;;9.50;;
16520;SDS011;8373;48.110;11.522;2022-10-17T17:29:44;17.40;;;9.70;;
16520;SDS011;8373;48.110;11.522;2022-10-17T17:32:13;19.27;;;8.80;;
16520;SDS011;8373;48.110;11.522;2022-10-17T17:34:40;26.67;;;8.93;;
16520;SDS011;8373;48.110;11.522;2022-10-17T17:37:07;23.10;;;9.50;;
16520;SDS011;8373;48.110;11.522;2022-10-17T17:39:34;24.53;;;10.00;;
16520;SDS011;8373;48.110;11.522;2022-10-17T17:42:01;18.80;;;9.50;;
16520;SDS011;8373;48.110;11.522;2022-10-17T17:44:29;27.90;;;12.60;;
16520;SDS011;8373;48.110;11.522;2022-10-17T17:46:57;27.80;;;12.03;;
16520;SDS011;8373;48.110;11.522;2022-10-17T17:49:23;23.10;;;10.80;;
16520;SDS011;8373;48.110;11.522;2022-10-17T17:51:50;30.40;;;12.20;;
16520;SDS011;8373;48.110;11.522;2022-10-17T17:54:18;23.77;;;12.63;;
16520;SDS011;8373;48.110;11.522;2022-10-17T17:56:45;38.63;;;14.00;;
16520;SDS011;8373;48.110;11.522;2022-10-17T17:59:12;37.33;;;13.23;;
16520;SDS011;8373;48.110;11.522;2022-10-17T18:01:41;25.10;;;11.80;;
16520;SDS011;8373;48.110;11.522;2022-10-17T18:04:09;23.37;;;11.97;;
16520;SDS011;8373;48.110;11.522;2022-10-17T18:06:37;34.43;;;11.07;;
16520;SDS011;8373;48.110;11.522;2022-10-17T18:09:05;19.80;;;9.83;;
16520;SDS011;8373;48.110;11.522;2022-10-17T18:11:32;23.43;;;9.70;;
16520;SDS011;8373;48.110;11.522;2022-10-17T18:14:00;21.77;;;11.23;;
16520;SDS011;8373;48.110;11.522;2022-10-17T18:16:29;22.67;;;10.20;;
16520;SDS011;8373;48.110;11.522;2022-10-17T18:18:58;21.60;;;10.60;;
16520;SDS011;8373;48.110;11.522;2022-10-17T18:21:29;26.10;;;11.23;;
16520;SDS011;8373;48.110;11.522;2022-10-17T18:23:56;22.63;;;10.47;;
16520;SDS011;8373;48.110;11.522;2022-10-17T18:26:24;25.30;;;10.03;;
16520;SDS011;8373;48.110;11.522;2022-10-17T18:28:51;29.43;;;11.80;;
16520;SDS011;8373;48.110;11.522;2022-10-17T18:31:19;35.40;;;12.37;;
16520;SDS011;8373;48.110;11.522;2022-10-17T18:33:49;22.50;;;11.50;;
16520;SDS011;8373;48.110;11.522;2022-10-17T18:36:19;26.93;;;13.23;;
16520;SDS011;8373;48.110;11.522;2022-10-17T18:38:46;36.67;;;12.77;;
16520;SDS011;8373;48.110;11.522;2022-10-17T18:41:15;34.70;;;12.80;;
16520;SDS011;8373;48.110;11.522;2022-10-17T18:43:44;30.00;;;13.60;;
16520;SDS011;8373;48.110;11.522;2022-10-17T18:46:12;38.73;;;14.90;;
16520;SDS011;8373;48.110;11.522;2022-10-17T18:48:41;28.57;;;13.67;;
16520;SDS011;8373;48.110;11.522;2022-10-17T18:51:09;25.10;;;13.13;;
16520;SDS011;8373;48.110;11.522;2022-10-17T18:53:39;23.47;;;12.47;;
16520;SDS011;8373;48.110;11.522;2022-10-17T18:56:07;26.93;;;13.43;;
16520;SDS011;8373;48.110;11.522;2022-10-17T18:58:35;28.20;;;13.40;;
16520;SDS011;8373;48.110;11.522;2022-10-17T19:01:02;26.60;;;12.60;;
16520;SDS011;8373;48.110;11.522;2022-10-17T19:03:31;23.13;;;12.77;;
16520;SDS011;8373;48.110;11.522;2022-10-17T19:06:01;23.77;;;12.10;;
16520;SDS011;8373;48.110;11.522;2022-10-17T19:08:31;44.63;;;19.77;;
16520;SDS011;8373;48.110;11.522;2022-10-17T19:11:04;65.97;;;22.10;;